Time;durP1;ratioP1;P1;durP2;ratioP2;P2;SDS_P1;SDS_P2;PMS_P1;PMS_P2;Temp;Humidity;BMP_temperature;BMP_pressure;BME280_temperature;BME280_humidity;BME280_pressure;Samples;Min_cycle;Max_cycle;Signal;HPM_P1;HPM_P2
2022/06/11 00:02:26;;;;;;;8.13;4.53;;;16.00;99.90;;;;;;5022978;28;20053;-65
2022/06/11 00:04:53;;;;;;;5.95;4.15;;;15.90;99.90;;;;;;5028964;28;20055;-65
2022/06/11 00:07:23;;;;;;;7.78;4.43;;;15.90;99.90;;;;;;5030092;28;20504;-65
2022/06/11 00:09:52;;;;;;;8.30;4.53;;;15.80;99.90;;;;;;5029409;28;20067;-65
2022/06/11 00:12:20;;;;;;;7.82;4.55;;;15.80;99.90;;;;;;5026869;28;20055;-65
2022/06/11 00:14:48;;;;;;;7.82;4.57;;;15.70;99.90;;;;;;5024941;28;20059;-65
2022/06/11 00:17:18;;;;;;;8.13;4.53;;;15.70;99.90;;;;;;5029663;28;20132;-65
2022/06/11 00:19:46;;;;;;;8.07;4.43;;;15.70;99.90;;;;;;5029495;28;20552;-64
2022/06/11 00:22:15;;;;;;;7.13;4.10;;;15.60;99.90;;;;;;5031101;28;20469;-65
2022/06/11 00:24:44;;;;;;;7.18;4.10;;;15.60;99.90;;;;;;5020979;28;20455;-65
2022/06/11 00:27:13;;;;;;;6.90;4.68;;;15.50;99.90;;;;;;5029246;28;20045;-65
2022/06/11 00:29:42;;;;;;;7.07;4.20;;;15.50;99.90;;;;;;5034255;28;20043;-65
2022/06/11 00:32:12;;;;;;;6.50;4.75;;;15.50;99.90;;;;;;5030470;28;20144;-65
2022/06/11 00:34:41;;;;;;;5.70;4.13;;;15.50;99.90;;;;;;5029061;28;20041;-65
2022/06/11 00:37:10;;;;;;;8.15;4.60;;;15.40;99.90;;;;;;5041846;28;20049;-65
2022/06/11 00:39:38;;;;;;;8.57;5.10;;;15.40;99.90;;;;;;5028634;28;20128;-65
2022/06/11 00:42:14;;;;;;;9.82;4.75;;;15.30;99.90;;;;;;5028450;28;20226;-65
2022/06/11 00:44:42;;;;;;;8.15;4.65;;;15.40;99.90;;;;;;5028675;28;20092;-65
2022/06/11 00:47:09;;;;;;;8.27;5.10;;;15.30;99.90;;;;;;5035985;28;20076;-65
2022/06/11 00:49:55;;;;;;;7.60;4.88;;;15.30;99.90;;;;;;5029296;28;20044;-65
2022/06/11 00:52:36;;;;;;;7.25;5.03;;;15.30;99.90;;;;;;5029704;28;20137;-65
2022/06/11 00:55:07;;;;;;;6.88;4.05;;;15.20;99.90;;;;;;5029026;28;20135;-65
2022/06/11 00:57:41;;;;;;;6.75;4.57;;;15.20;99.90;;;;;;5023689;28;20051;-65
2022/06/11 01:00:24;;;;;;;8.48;4.85;;;15.20;99.90;;;;;;5029942;28;20497;-65
2022/06/11 01:02:51;;;;;;;10.48;5.22;;;15.20;99.90;;;;;;5030838;28;20064;-65
2022/06/11 01:05:36;;;;;;;9.27;5.28;;;15.10;99.90;;;;;;5030665;28;20523;-65
2022/06/11 01:08:30;;;;;;;9.70;4.97;;;15.10;99.90;;;;;;5030190;28;20423;-65
2022/06/11 01:11:43;;;;;;;7.75;4.82;;;15.10;99.90;;;;;;5030121;28;20055;-65
2022/06/11 01:14:32;;;;;;;9.27;4.72;;;15.10;99.90;;;;;;5029023;28;20053;-65
2022/06/11 01:17:21;;;;;;;7.75;4.88;;;15.10;99.90;;;;;;5026471;28;20416;-65
2022/06/11 01:20:07;;;;;;;7.57;4.60;;;15.00;99.90;;;;;;5024050;28;20054;-65
2022/06/11 01:23:06;;;;;;;6.30;4.38;;;15.00;99.90;;;;;;5028447;28;20045;-65
2022/06/11 01:25:47;;;;;;;6.88;4.82;;;14.90;99.90;;;;;;5029602;28;20516;-65
2022/06/11 01:28:51;;;;;;;7.72;4.90;;;14.90;99.90;;;;;;5029871;28;20044;-65
2022/06/11 01:31:27;;;;;;;8.90;4.97;;;14.90;99.90;;;;;;5021559;28;20389;-65
2022/06/11 01:34:10;;;;;;;6.95;4.85;;;14.80;99.90;;;;;;5029431;28;20041;-65
2022/06/11 01:36:41;;;;;;;6.78;4.85;;;14.80;99.90;;;;;;5039802;28;20124;-65
2022/06/11 01:39:28;;;;;;;6.57;4.95;;;14.70;99.90;;;;;;5030140;28;20041;-65
2022/06/11 01:42:07;;;;;;;7.63;5.38;;;14.70;99.90;;;;;;5015336;28;20124;-65
2022/06/11 01:44:38;;;;;;;9.93;4.78;;;14.60;99.90;;;;;;5023706;28;20496;-65
2022/06/11 01:47:07;;;;;;;10.95;5.20;;;14.60;99.90;;;;;;5033294;28;20042;-65
2022/06/11 01:49:47;;;;;;;10.48;5.53;;;14.60;99.90;;;;;;5032554;28;20974;-65
2022/06/11 01:52:29;;;;;;;6.85;5.00;;;14.50;99.90;;;;;;5042621;28;20045;-65
2022/06/11 01:55:34;;;;;;;7.78;5.45;;;14.50;99.90;;;;;;5039113;28;20095;-65
2022/06/11 01:58:16;;;;;;;10.93;5.15;;;14.50;99.90;;;;;;5021042;28;20123;-65
2022/06/11 02:01:05;;;;;;;;;;;14.50;99.90;;;;;;5045065;28;20498;-65
2022/06/11 02:04:00;;;;;;;8.73;5.32;;;14.50;99.90;;;;;;5016408;28;20390;-65
2022/06/11 02:06:33;;;;;;;8.55;4.40;;;14.50;99.90;;;;;;5027147;28;20820;-64
2022/06/11 02:09:21;;;;;;;6.93;5.22;;;14.50;99.90;;;;;;5051059;28;20052;-65
2022/06/11 02:11:55;;;;;;;9.35;4.88;;;14.50;99.90;;;;;;5037974;28;20488;-65
2022/06/11 02:14:32;;;;;;;7.82;5.28;;;14.50;99.90;;;;;;5048845;28;20059;-65
2022/06/11 02:17:08;;;;;;;10.55;5.03;;;14.40;99.90;;;;;;5050592;28;20488;-65
2022/06/11 02:19:42;;;;;;;8.02;5.28;;;14.40;99.90;;;;;;5044331;28;20040;-66
2022/06/11 02:22:21;;;;;;;7.57;5.38;;;14.30;99.90;;;;;;5027290;28;20140;-65
2022/06/11 02:25:06;;;;;;;7.68;4.88;;;14.30;99.90;;;;;;5027782;28;20040;-65
2022/06/11 02:27:35;;;;;;;6.03;4.60;;;14.30;99.90;;;;;;5037781;28;20041;-65
2022/06/11 02:30:06;;;;;;;8.20;5.30;;;14.30;99.90;;;;;;5049855;28;20423;-65
2022/06/11 02:32:33;;;;;;;7.10;5.03;;;14.30;99.90;;;;;;5033265;28;20528;-65
2022/06/11 02:35:05;;;;;;;6.75;4.80;;;14.20;99.90;;;;;;5042845;28;20534;-65
2022/06/11 02:37:43;;;;;;;;;;;14.20;99.90;;;;;;5037186;28;20533;-65
2022/06/11 02:40:24;;;;;;;6.55;4.90;;;14.20;99.90;;;;;;5031405;28;20393;-65
2022/06/11 02:42:52;;;;;;;8.88;5.93;;;14.20;99.90;;;;;;5036223;28;20056;-65
2022/06/11 02:45:20;;;;;;;9.93;5.45;;;14.20;99.90;;;;;;5035997;28;20080;-65
2022/06/11 02:47:51;;;;;;;7.47;5.82;;;14.10;99.90;;;;;;5032952;28;20464;-65
2022/06/11 02:50:27;;;;;;;7.65;5.15;;;14.10;99.90;;;;;;5045450;28;20124;-65
2022/06/11 02:52:54;;;;;;;7.72;5.55;;;14.00;99.90;;;;;;5039272;28;20477;-65
2022/06/11 02:55:23;;;;;;;7.35;4.78;;;14.00;99.90;;;;;;5025569;28;20128;-65
2022/06/11 02:57:50;;;;;;;7.07;4.90;;;14.00;99.90;;;;;;5038913;28;20118;-65
2022/06/11 03:00:21;;;;;;;8.95;5.95;;;14.00;99.90;;;;;;5036845;28;20045;-65
2022/06/11 03:02:49;;;;;;;7.40;5.03;;;14.00;99.90;;;;;;5044134;28;20045;-65
2022/06/11 03:05:19;;;;;;;9.93;5.95;;;14.00;99.90;;;;;;5030455;28;20512;-65
2022/06/11 03:07:47;;;;;;;8.18;4.90;;;14.00;99.90;;;;;;5023991;28;20452;-65
2022/06/11 03:10:17;;;;;;;9.48;5.72;;;14.00;99.90;;;;;;5029452;28;20404;-65
2022/06/11 03:12:44;;;;;;;6.50;4.90;;;14.00;99.90;;;;;;5029606;28;20231;-65
2022/06/11 03:15:14;;;;;;;7.93;5.03;;;14.00;99.90;;;;;;5035193;28;20053;-65
2022/06/11 03:17:42;;;;;;;6.90;5.47;;;14.10;99.90;;;;;;5031692;28;20471;-64
2022/06/11 03:20:11;;;;;;;8.43;5.50;;;14.10;99.90;;;;;;5032090;28;20037;-65
2022/06/11 03:22:39;;;;;;;9.13;5.50;;;14.10;99.90;;;;;;5024794;28;20365;-65
2022/06/11 03:25:08;;;;;;;7.85;5.43;;;14.10;99.90;;;;;;5044426;28;20057;-64
2022/06/11 03:27:38;;;;;;;10.30;5.22;;;14.10;99.90;;;;;;5038037;28;20064;-65
2022/06/11 03:30:08;;;;;;;7.30;5.50;;;14.20;99.90;;;;;;5047375;28;20499;-65
2022/06/11 03:32:36;;;;;;;8.68;5.35;;;14.20;99.90;;;;;;5028264;28;20051;-65
2022/06/11 03:35:04;;;;;;;7.03;5.00;;;14.20;99.90;;;;;;5040309;28;20053;-65
2022/06/11 03:37:31;;;;;;;8.20;5.32;;;14.20;99.90;;;;;;5031596;28;20047;-65
2022/06/11 03:39:59;;;;;;;8.13;5.07;;;14.20;99.90;;;;;;5047481;28;20060;-65
2022/06/11 03:42:26;;;;;;;6.75;4.82;;;14.30;99.90;;;;;;5035656;28;20041;-65
2022/06/11 03:44:54;;;;;;;7.40;5.05;;;14.30;99.90;;;;;;5029535;28;20052;-65
2022/06/11 03:47:22;;;;;;;8.57;5.60;;;14.30;99.90;;;;;;5030258;28;20376;-65
2022/06/11 03:49:49;;;;;;;7.78;4.90;;;14.30;99.90;;;;;;5030736;28;20416;-65
2022/06/11 03:52:17;;;;;;;6.70;5.00;;;14.30;99.90;;;;;;5029073;28;20176;-65
2022/06/11 03:54:44;;;;;;;6.75;5.28;;;14.30;99.90;;;;;;5046744;28;20059;-64
2022/06/11 03:57:11;;;;;;;6.75;5.30;;;14.40;99.90;;;;;;5046415;28;20140;-65
2022/06/11 03:59:39;;;;;;;9.65;5.57;;;14.40;99.90;;;;;;5044809;28;20049;-64
2022/06/11 04:02:06;;;;;;;7.45;5.35;;;14.40;99.90;;;;;;5040756;28;20049;-64
2022/06/11 04:04:34;;;;;;;7.25;5.07;;;14.50;99.90;;;;;;5029111;28;20400;-65
2022/06/11 04:07:02;;;;;;;8.88;5.50;;;14.50;99.90;;;;;;5027630;28;20042;-64
2022/06/11 04:09:36;;;;;;;8.95;4.85;;;14.60;99.90;;;;;;5026223;28;20141;-64
2022/06/11 04:12:09;;;;;;;10.57;4.95;;;14.60;99.90;;;;;;5020780;28;20053;-64
2022/06/11 04:14:37;;;;;;;7.88;4.93;;;14.60;99.90;;;;;;5026963;28;20405;-64
2022/06/11 04:17:13;;;;;;;8.45;5.00;;;14.60;99.90;;;;;;5027262;28;20531;-64
2022/06/11 04:19:43;;;;;;;7.28;5.28;;;14.70;99.90;;;;;;5038953;28;20114;-64
2022/06/11 04:22:10;;;;;;;8.02;5.25;;;14.80;99.90;;;;;;5035140;28;20037;-64
2022/06/11 04:24:38;;;;;;;9.07;5.38;;;14.80;99.90;;;;;;5031741;28;20049;-64
2022/06/11 04:27:08;;;;;;;6.78;4.85;;;14.90;99.90;;;;;;5032813;28;20501;-64
2022/06/11 04:29:37;;;;;;;10.63;5.65;;;14.90;99.90;;;;;;5047177;28;20163;-64
2022/06/11 04:32:08;;;;;;;6.53;4.55;;;15.00;99.90;;;;;;5045392;28;20436;-64
2022/06/11 04:34:36;;;;;;;8.68;5.50;;;15.10;99.90;;;;;;5036786;28;20523;-64
2022/06/11 04:37:04;;;;;;;11.75;5.25;;;15.10;99.90;;;;;;5045110;28;20151;-63
2022/06/11 04:39:33;;;;;;;7.05;5.10;;;15.20;99.90;;;;;;5046263;28;20551;-64
2022/06/11 04:42:01;;;;;;;8.13;5.28;;;15.20;99.90;;;;;;5036714;28;20046;-64
2022/06/11 04:44:28;;;;;;;10.45;5.68;;;15.30;99.90;;;;;;5038812;28;20055;-65
2022/06/11 04:46:56;;;;;;;9.57;5.40;;;15.40;99.90;;;;;;5042111;28;20077;-64
2022/06/11 04:49:23;;;;;;;9.35;5.80;;;15.40;99.90;;;;;;5036339;28;20041;-64
2022/06/11 04:51:50;;;;;;;9.27;5.18;;;15.50;99.90;;;;;;5026580;28;20041;-64
2022/06/11 04:54:18;;;;;;;10.60;5.80;;;15.40;99.90;;;;;;5027993;28;20034;-64
2022/06/11 04:56:45;;;;;;;8.38;5.70;;;15.50;99.90;;;;;;5032560;28;20080;-64
2022/06/11 04:59:13;;;;;;;7.22;5.80;;;15.50;99.90;;;;;;5027309;28;20048;-64
2022/06/11 05:01:42;;;;;;;7.97;5.28;;;15.60;99.90;;;;;;5032812;28;20072;-65
2022/06/11 05:04:11;;;;;;;9.75;5.82;;;15.60;99.90;;;;;;5040826;28;20056;-64
2022/06/11 05:06:41;;;;;;;9.85;5.63;;;15.70;99.90;;;;;;5035783;28;20049;-64
2022/06/11 05:09:11;;;;;;;6.65;5.20;;;15.70;99.90;;;;;;5017610;28;20560;-65
2022/06/11 05:11:39;;;;;;;9.07;5.40;;;15.80;99.90;;;;;;5038743;28;20111;-66
2022/06/11 05:14:06;;;;;;;6.78;5.15;;;15.80;99.90;;;;;;5023552;28;20037;-65
2022/06/11 05:16:35;;;;;;;7.03;4.75;;;15.80;99.90;;;;;;5034955;28;20057;-65
2022/06/11 05:19:04;;;;;;;8.50;5.43;;;15.90;99.90;;;;;;5031640;28;20504;-65
2022/06/11 05:21:31;;;;;;;6.95;5.47;;;15.90;99.90;;;;;;5034260;28;20037;-65
2022/06/11 05:23:58;;;;;;;8.43;5.80;;;16.00;99.90;;;;;;5028114;28;20052;-65
2022/06/11 05:26:37;;;;;;;7.72;5.80;;;16.00;99.90;;;;;;5028997;28;20041;-65
2022/06/11 05:29:06;;;;;;;8.75;5.40;;;16.10;99.90;;;;;;5047406;28;20045;-65
2022/06/11 05:31:34;;;;;;;8.30;5.60;;;16.10;99.90;;;;;;5048107;28;20047;-65
2022/06/11 05:34:02;;;;;;;9.05;5.22;;;16.20;99.90;;;;;;5032069;28;20408;-65
2022/06/11 05:36:29;;;;;;;7.85;5.35;;;16.30;99.90;;;;;;5047776;28;20507;-65
2022/06/11 05:38:56;;;;;;;8.80;5.53;;;16.40;99.90;;;;;;5044416;28;20129;-65
2022/06/11 05:41:24;;;;;;;8.15;5.43;;;16.40;99.90;;;;;;5046302;28;20041;-65
2022/06/11 05:43:51;;;;;;;7.10;5.43;;;16.50;99.90;;;;;;5044747;28;20079;-65
2022/06/11 05:46:22;;;;;;;8.63;5.75;;;16.60;99.90;;;;;;5016630;28;20424;-65
2022/06/11 05:48:54;;;;;;;8.32;5.35;;;16.60;99.90;;;;;;5028496;28;20076;-65
2022/06/11 05:51:25;;;;;;;7.38;5.55;;;16.70;99.90;;;;;;5041428;28;20041;-65
2022/06/11 05:53:55;;;;;;;8.70;5.07;;;16.80;99.90;;;;;;5043708;28;20128;-65
2022/06/11 05:56:22;;;;;;;6.82;4.72;;;16.90;99.90;;;;;;5026177;28;20412;-64
2022/06/11 05:58:56;;;;;;;8.40;5.68;;;17.00;99.90;;;;;;5028811;28;20504;-64
2022/06/11 06:01:33;;;;;;;7.85;5.10;;;17.10;99.90;;;;;;5036533;28;20111;-64
2022/06/11 06:04:00;;;;;;;7.85;4.90;;;17.20;99.90;;;;;;5025692;28;20547;-64
2022/06/11 06:06:29;;;;;;;9.18;6.15;;;17.30;99.90;;;;;;5039440;28;20044;-64
2022/06/11 06:08:56;;;;;;;8.95;5.72;;;17.40;99.90;;;;;;5014213;28;20132;-64
2022/06/11 06:11:25;;;;;;;9.15;5.32;;;17.40;99.90;;;;;;5027628;28;20056;-64
2022/06/11 06:13:56;;;;;;;7.45;5.43;;;17.40;99.90;;;;;;5038886;28;20045;-64
2022/06/11 06:16:26;;;;;;;7.95;4.80;;;17.50;99.90;;;;;;5032892;28;20049;-64
2022/06/11 06:18:55;;;;;;;6.57;4.50;;;17.60;99.90;;;;;;5028508;28;20053;-64
2022/06/11 06:21:25;;;;;;;7.03;4.85;;;17.60;99.90;;;;;;5014687;28;20528;-64
2022/06/11 06:23:53;;;;;;;7.55;5.15;;;17.70;99.90;;;;;;5019842;28;20068;-64
2022/06/11 06:26:20;;;;;;;7.38;5.00;;;17.80;99.90;;;;;;5015327;28;20046;-65
2022/06/11 06:28:48;;;;;;;8.45;6.20;;;17.80;99.90;;;;;;5026564;28;20039;-65
2022/06/11 06:31:16;;;;;;;8.30;4.45;;;17.80;99.90;;;;;;5029280;28;20045;-65
2022/06/11 06:33:45;;;;;;;7.57;4.22;;;17.90;99.90;;;;;;5038002;28;21008;-65
2022/06/11 06:36:14;;;;;;;7.13;4.82;;;18.10;99.90;;;;;;5040439;28;20125;-65
2022/06/11 06:38:43;;;;;;;6.50;3.97;;;18.20;99.90;;;;;;5027239;28;20052;-64
2022/06/11 06:41:13;;;;;;;10.07;5.30;;;18.30;99.90;;;;;;5028075;28;20050;-64
2022/06/11 06:43:42;;;;;;;8.60;4.80;;;18.50;99.90;;;;;;5024257;28;20041;-65
2022/06/11 06:46:10;;;;;;;7.82;4.60;;;18.70;99.90;;;;;;5032868;28;20046;-64
2022/06/11 06:48:37;;;;;;;5.55;3.65;;;18.80;99.90;;;;;;5039338;28;20090;-63
2022/06/11 06:51:05;;;;;;;8.32;4.80;;;19.00;99.90;;;;;;5042294;28;20565;-65
2022/06/11 06:53:32;;;;;;;9.63;5.00;;;19.20;99.90;;;;;;5040084;28;20041;-65
2022/06/11 06:56:00;;;;;;;7.60;4.97;;;19.30;99.90;;;;;;5030187;28;20045;-65
2022/06/11 06:58:27;;;;;;;9.65;5.72;;;19.50;99.90;;;;;;5034572;28;20382;-65
2022/06/11 07:00:55;;;;;;;9.32;6.20;;;19.60;99.90;;;;;;5038360;28;20141;-65
2022/06/11 07:03:22;;;;;;;7.60;4.88;;;19.80;99.90;;;;;;5041915;28;20064;-65
2022/06/11 07:05:50;;;;;;;11.77;5.25;;;20.00;99.90;;;;;;5038934;28;20049;-65
2022/06/11 07:08:18;;;;;;;8.48;4.88;;;20.20;99.90;;;;;;5030715;28;20365;-66
2022/06/11 07:10:51;;;;;;;8.02;4.35;;;20.40;99.90;;;;;;5031408;28;20575;-65
2022/06/11 07:13:19;;;;;;;10.38;4.93;;;20.70;99.90;;;;;;5036055;28;20111;-65
2022/06/11 07:15:50;;;;;;;11.32;4.55;;;20.90;99.90;;;;;;5034440;28;20377;-65
2022/06/11 07:18:22;;;;;;;7.67;4.20;;;21.20;99.90;;;;;;5032221;28;20045;-66
2022/06/11 07:20:52;;;;;;;6.28;4.05;;;21.30;99.90;;;;;;5031106;28;20037;-65
2022/06/11 07:23:24;;;;;;;8.85;4.13;;;21.60;99.90;;;;;;5032006;28;20076;-66
2022/06/11 07:25:55;;;;;;;9.32;4.90;;;21.80;99.90;;;;;;5022347;28;20125;-65
2022/06/11 07:28:30;;;;;;;8.27;4.38;;;22.10;99.90;;;;;;5039955;28;20388;-65
2022/06/11 07:31:00;;;;;;;6.85;3.95;;;22.20;99.90;;;;;;5031444;28;20484;-65
2022/06/11 07:33:28;;;;;;;7.82;3.83;;;22.50;99.90;;;;;;5036672;28;20088;-65
2022/06/11 07:35:56;;;;;;;7.70;3.80;;;22.90;99.90;;;;;;5040605;28;20177;-65
2022/06/11 07:38:28;;;;;;;6.13;3.58;;;23.10;99.90;;;;;;5040359;28;20049;-65
2022/06/11 07:40:55;;;;;;;9.05;4.32;;;23.10;99.90;;;;;;5041453;28;20041;-66
2022/06/11 07:43:23;;;;;;;8.00;3.65;;;22.90;99.90;;;;;;5040567;28;20071;-65
2022/06/11 07:45:50;;;;;;;8.13;3.17;;;22.90;99.90;;;;;;5037721;28;20069;-65
2022/06/11 07:48:18;;;;;;;7.65;3.15;;;22.80;99.90;;;;;;5031209;28;20483;-65
2022/06/11 07:50:48;;;;;;;5.28;3.05;;;22.70;99.90;;;;;;5030475;28;20040;-65
2022/06/11 07:53:18;;;;;;;8.55;3.45;;;22.70;99.90;;;;;;5030142;28;20033;-66
2022/06/11 07:55:47;;;;;;;8.75;3.05;;;22.50;99.90;;;;;;5028761;28;20056;-65
2022/06/11 07:58:16;;;;;;;5.80;2.80;;;22.60;99.90;;;;;;5029875;28;20041;-65
2022/06/11 08:00:48;;;;;;;5.63;2.53;;;22.90;99.90;;;;;;5030069;28;20057;-64
2022/06/11 08:03:16;;;;;;;7.70;2.88;;;22.80;99.90;;;;;;5029473;28;20056;-66
2022/06/11 08:05:44;;;;;;;4.65;2.75;;;23.00;99.90;;;;;;5030321;28;20439;-64
2022/06/11 08:08:12;;;;;;;6.15;2.60;;;23.00;99.90;;;;;;5032596;28;20045;-65
2022/06/11 08:10:42;;;;;;;6.70;2.75;;;23.20;99.90;;;;;;5030511;28;20047;-66
2022/06/11 08:13:10;;;;;;;7.00;2.63;;;23.20;99.90;;;;;;5038614;28;20075;-65
2022/06/11 08:15:39;;;;;;;9.10;2.65;;;23.20;99.90;;;;;;5029498;28;20081;-66
2022/06/11 08:18:07;;;;;;;7.05;2.90;;;23.20;99.90;;;;;;5029921;28;20057;-66
2022/06/11 08:20:37;;;;;;;6.28;2.70;;;23.20;99.90;;;;;;5029652;28;20037;-66
2022/06/11 08:23:06;;;;;;;6.88;2.75;;;23.00;99.90;;;;;;5037177;28;20136;-66
2022/06/11 08:25:35;;;;;;;5.15;1.95;;;23.20;99.90;;;;;;5038333;28;20038;-66
2022/06/11 08:28:03;;;;;;;5.32;2.30;;;23.60;99.90;;;;;;5034948;28;20127;-66
2022/06/11 08:30:32;;;;;;;4.50;1.90;;;23.80;99.90;;;;;;5029648;28;20038;-66
2022/06/11 08:33:00;;;;;;;5.90;2.30;;;23.80;99.90;;;;;;5032548;28;20132;-66
2022/06/11 08:35:30;;;;;;;4.85;2.45;;;23.70;99.90;;;;;;5031672;28;20451;-65
2022/06/11 08:37:58;;;;;;;5.30;2.20;;;23.70;99.90;;;;;;5036093;28;20041;-66
2022/06/11 08:40:34;;;;;;;4.70;2.15;;;23.50;99.90;;;;;;5032102;28;20135;-66
2022/06/11 08:43:14;;;;;;;6.53;2.05;;;23.50;99.90;;;;;;5021250;28;20045;-66
2022/06/11 08:45:45;;;;;;;3.13;2.00;;;23.40;99.90;;;;;;5026103;28;20037;-68
2022/06/11 08:48:20;;;;;;;7.15;2.50;;;23.20;99.90;;;;;;5029203;28;20482;-66
2022/06/11 08:51:41;;;;;;;4.40;1.92;;;23.20;99.90;;;;;;5028901;28;20064;-67
2022/06/11 08:54:16;;;;;;;5.43;2.17;;;23.30;99.90;;;;;;5027989;28;20686;-65
2022/06/11 08:57:14;;;;;;;5.18;2.25;;;23.20;99.90;;;;;;5027677;28;20517;-66
2022/06/11 09:00:02;;;;;;;6.25;2.03;;;23.40;99.90;;;;;;5028805;28;20611;-64
2022/06/11 09:02:45;;;;;;;5.13;2.10;;;23.60;99.90;;;;;;5033588;28;20042;-66
2022/06/11 09:05:48;;;;;;;5.38;2.35;;;23.80;99.90;;;;;;5025646;28;20053;-66
2022/06/11 09:08:25;;;;;;;6.00;2.13;;;24.00;99.90;;;;;;5024780;28;20201;-64
2022/06/11 09:11:16;;;;;;;6.25;2.33;;;24.20;99.90;;;;;;5010363;28;20087;-66
2022/06/11 09:14:06;;;;;;;3.95;2.13;;;24.30;99.90;;;;;;5037696;28;20544;-65
2022/06/11 09:16:58;;;;;;;5.10;2.33;;;24.70;99.90;;;;;;5029556;28;20590;-66
2022/06/11 09:19:54;;;;;;;4.93;2.15;;;24.80;99.90;;;;;;5010313;28;20128;-65
2022/06/11 09:22:34;;;;;;;4.30;2.17;;;25.00;99.90;;;;;;5029744;28;20053;-66
2022/06/11 09:25:31;;;;;;;4.47;2.65;;;25.20;99.90;;;;;;5029882;28;20487;-66
2022/06/11 09:28:08;;;;;;;4.50;2.22;;;25.40;99.90;;;;;;5020060;28;20137;-65
2022/06/11 09:30:53;;;;;;;4.93;2.00;;;25.70;99.90;;;;;;5040758;28;20041;-67
2022/06/11 09:33:32;;;;;;;4.80;1.92;;;25.90;99.90;;;;;;5045938;28;20049;-64
2022/06/11 09:36:05;;;;;;;4.93;1.90;;;25.80;99.90;;;;;;5045408;28;20043;-67
2022/06/11 09:38:54;;;;;;;5.95;2.75;;;25.70;99.90;;;;;;5037011;28;20073;-65
2022/06/11 09:41:47;;;;;;;5.10;2.10;;;25.70;99.90;;;;;;5039409;28;20547;-66
2022/06/11 09:44:28;;;;;;;6.30;2.10;;;25.80;99.90;;;;;;5030028;28;20125;-66
2022/06/11 09:47:04;;;;;;;5.78;2.05;;;26.10;99.90;;;;;;5028835;28;20456;-66
2022/06/11 09:50:12;;;;;;;6.70;2.35;;;26.30;99.90;;;;;;5028804;28;20140;-65
2022/06/11 09:52:59;;;;;;;4.70;1.67;;;26.10;99.90;;;;;;5029654;28;20049;-66
2022/06/11 09:55:39;;;;;;;4.85;2.20;;;26.10;99.90;;;;;;5024595;28;20049;-65
2022/06/11 09:58:33;;;;;;;4.88;2.63;;;25.90;99.90;;;;;;5020097;28;20049;-65
2022/06/11 10:01:05;;;;;;;3.88;1.73;;;26.60;99.90;;;;;;5039802;28;20075;-65
2022/06/11 10:03:41;;;;;;;4.90;1.77;;;26.50;99.90;;;;;;5027830;28;20072;-66
2022/06/11 10:06:29;;;;;;;5.15;2.30;;;26.40;99.90;;;;;;5024121;28;20575;-65
2022/06/11 10:09:03;;;;;;;5.75;2.33;;;26.20;99.90;;;;;;5024926;28;20124;-66
2022/06/11 10:11:38;;;;;;;4.00;1.70;;;26.20;99.90;;;;;;5023200;28;20045;-65
2022/06/11 10:14:43;;;;;;;5.25;1.85;;;26.10;99.90;;;;;;5023016;28;20543;-66
2022/06/11 10:17:34;;;;;;;4.65;1.98;;;26.30;99.90;;;;;;5043507;28;20044;-67
2022/06/11 10:20:08;;;;;;;5.05;2.03;;;26.20;99.90;;;;;;5033589;28;20045;-66
2022/06/11 10:23:01;;;;;;;5.63;2.13;;;26.00;99.90;;;;;;5024915;28;20467;-65
2022/06/11 10:25:50;;;;;;;4.05;1.60;;;26.30;99.90;;;;;;5028359;28;20037;-67
2022/06/11 10:28:31;;;;;;;6.47;1.98;;;26.40;99.90;;;;;;5029487;28;20057;-66
2022/06/11 10:31:08;;;;;;;3.80;1.60;;;26.20;99.90;;;;;;5045901;28;20041;-66
2022/06/11 10:33:45;;;;;;;4.13;1.88;;;26.20;99.90;;;;;;5034588;28;20144;-66
2022/06/11 10:36:16;;;;;;;6.75;1.63;;;26.30;99.90;;;;;;5044478;28;20492;-65
2022/06/11 10:38:58;;;;;;;6.43;2.00;;;26.30;99.90;;;;;;5032583;28;20122;-66
2022/06/11 10:41:42;;;;;;;2.97;1.50;;;26.60;99.90;;;;;;5009764;28;20045;-68
2022/06/11 10:44:09;;;;;;;5.03;1.63;;;26.80;99.30;;;;;;5032541;28;20096;-65
2022/06/11 10:46:39;;;;;;;4.35;1.63;;;26.40;99.10;;;;;;5032163;28;20052;-67
2022/06/11 10:49:15;;;;;;;6.00;2.10;;;26.80;99.80;;;;;;5031371;28;20057;-66
2022/06/11 10:51:51;;;;;;;4.97;1.70;;;26.50;99.90;;;;;;5030483;28;20061;-65
2022/06/11 10:54:23;;;;;;;4.18;1.85;;;26.40;99.90;;;;;;5043105;28;20037;-66
2022/06/11 10:57:11;;;;;;;4.47;1.90;;;26.10;99.90;;;;;;5026700;28;20471;-65
2022/06/11 10:59:43;;;;;;;6.88;1.80;;;25.90;99.90;;;;;;5022952;28;20380;-66
2022/06/11 11:02:16;;;;;;;3.67;1.75;;;26.40;99.90;;;;;;5049183;28;20464;-66
2022/06/11 11:05:00;;;;;;;3.78;1.67;;;26.70;99.90;;;;;;5028754;28;20040;-66
2022/06/11 11:07:57;;;;;;;4.75;1.55;;;26.50;99.60;;;;;;5038303;28;20041;-66
2022/06/11 11:10:30;;;;;;;8.35;1.70;;;26.70;99.40;;;;;;5048049;28;20144;-65
2022/06/11 11:13:02;;;;;;;4.00;1.73;;;27.20;99.10;;;;;;5035365;28;20469;-65
2022/06/11 11:15:40;;;;;;;3.38;1.52;;;27.50;98.60;;;;;;5041117;28;20132;-65
2022/06/11 11:18:20;;;;;;;4.80;1.90;;;27.80;98.30;;;;;;5043394;28;20049;-65
2022/06/11 11:20:53;;;;;;;5.07;1.50;;;28.00;97.50;;;;;;5032815;28;20053;-65
2022/06/11 11:23:35;;;;;;;4.72;1.67;;;28.20;96.90;;;;;;5040746;28;20492;-65
2022/06/11 11:26:18;;;;;;;4.47;1.77;;;28.20;96.60;;;;;;5033209;28;20122;-66
2022/06/11 11:29:14;;;;;;;2.78;1.50;;;27.80;96.50;;;;;;5026763;28;20037;-65
2022/06/11 11:31:52;;;;;;;4.93;1.67;;;27.60;95.90;;;;;;5032834;28;20575;-65
2022/06/11 11:34:26;;;;;;;3.60;1.58;;;27.50;96.20;;;;;;5022850;28;20052;-65
2022/06/11 11:37:20;;;;;;;3.53;1.40;;;28.30;95.20;;;;;;5033565;28;20061;-65
2022/06/11 11:40:02;;;;;;;4.60;1.55;;;29.20;94.50;;;;;;5040399;28;20041;-65
2022/06/11 11:42:39;;;;;;;5.43;1.30;;;29.90;94.10;;;;;;5034417;28;20045;-65
2022/06/11 11:45:21;;;;;;;5.30;1.33;;;29.70;91.90;;;;;;5029856;28;20164;-65
2022/06/11 11:47:49;;;;;;;;;;;28.80;92.70;;;;;;5034925;28;20050;-65
2022/06/11 11:50:27;;;;;;;8.23;1.60;;;28.70;93.80;;;;;;5030219;28;20007;-66
2022/06/11 11:53:19;;;;;;;3.63;1.70;;;28.30;93.80;;;;;;5032807;28;20508;-66
2022/06/11 11:56:04;;;;;;;6.03;1.60;;;27.60;94.00;;;;;;5033370;28;20155;-66
2022/06/11 11:58:40;;;;;;;2.65;1.40;;;27.50;94.70;;;;;;5028088;28;20040;-65
2022/06/11 12:01:13;;;;;;;3.75;1.50;;;27.70;94.60;;;;;;5031225;28;20055;-66
2022/06/11 12:03:47;;;;;;;4.18;1.58;;;27.40;94.30;;;;;;5028756;28;20045;-65
2022/06/11 12:06:26;;;;;;;4.40;1.42;;;27.20;94.10;;;;;;5029355;28;20509;-65
2022/06/11 12:08:55;;;;;;;4.40;1.80;;;27.70;94.30;;;;;;5030661;28;20410;-65
2022/06/11 12:11:28;;;;;;;2.80;1.40;;;29.30;93.30;;;;;;5030433;28;20132;-66
2022/06/11 12:14:15;;;;;;;4.70;1.90;;;29.80;91.60;;;;;;5028617;28;20556;-65
2022/06/11 12:16:56;;;;;;;6.72;1.63;;;30.00;91.40;;;;;;5030012;28;20041;-65
2022/06/11 12:19:27;;;;;;;4.63;1.50;;;29.70;90.90;;;;;;5029818;28;20092;-65
2022/06/11 12:22:01;;;;;;;3.55;1.40;;;29.80;91.00;;;;;;5039687;28;20468;-65
2022/06/11 12:24:36;;;;;;;4.72;1.50;;;29.80;91.00;;;;;;5030025;28;20577;-65
2022/06/11 12:27:25;;;;;;;5.40;1.52;;;29.60;90.60;;;;;;5029870;28;20140;-66
2022/06/11 12:30:01;;;;;;;5.45;1.70;;;29.30;90.90;;;;;;5030395;28;20481;-66
2022/06/11 12:32:30;;;;;;;4.30;1.80;;;29.10;91.50;;;;;;5019651;28;20045;-65
2022/06/11 12:35:03;;;;;;;2.42;1.38;;;28.90;91.30;;;;;;5040745;28;20045;-66
2022/06/11 12:37:45;;;;;;;2.97;1.60;;;28.80;91.90;;;;;;5025293;28;20092;-65
2022/06/11 12:40:18;;;;;;;3.55;1.60;;;29.00;91.20;;;;;;5032855;28;20585;-65
2022/06/11 12:43:11;;;;;;;6.75;1.80;;;29.60;90.70;;;;;;5022771;28;20415;-66
2022/06/11 12:45:48;;;;;;;4.18;1.63;;;30.00;90.30;;;;;;5034574;28;20456;-67
2022/06/11 12:48:30;;;;;;;3.10;1.58;;;31.30;90.40;;;;;;5027986;28;20457;-65
2022/06/11 12:51:22;;;;;;;5.65;1.73;;;32.80;87.10;;;;;;5041335;28;20041;-65
2022/06/11 12:53:59;;;;;;;5.10;1.70;;;33.40;84.10;;;;;;5041238;28;20055;-66
2022/06/11 12:57:03;;;;;;;3.35;1.27;;;33.10;81.30;;;;;;5027276;28;20457;-66
2022/06/11 12:59:51;;;;;;;4.93;1.45;;;33.10;81.40;;;;;;5030559;28;20117;-66
2022/06/11 13:02:34;;;;;;;4.70;1.75;;;32.40;79.90;;;;;;5038417;28;20084;-66
2022/06/11 13:05:20;;;;;;;2.30;1.38;;;32.60;78.60;;;;;;5029044;28;20472;-65
2022/06/11 13:07:56;;;;;;;2.78;1.50;;;32.80;80.00;;;;;;5027429;28;20503;-65
2022/06/11 13:10:36;;;;;;;3.65;1.50;;;33.80;78.20;;;;;;5014075;28;20504;-66
2022/06/11 13:13:55;;;;;;;3.22;1.60;;;34.70;75.10;;;;;;5014229;28;20466;-64
2022/06/11 13:16:35;;;;;;;3.90;1.40;;;34.00;75.40;;;;;;5027061;28;20610;-65
2022/06/11 13:19:34;;;;;;;4.30;1.65;;;33.90;76.00;;;;;;5017417;28;20048;-66
2022/06/11 13:22:36;;;;;;;3.33;1.40;;;35.10;74.80;;;;;;5027970;28;20045;-65
2022/06/11 13:25:33;;;;;;;2.60;1.25;;;34.60;73.40;;;;;;5037162;28;20060;-66
2022/06/11 13:28:07;;;;;;;3.53;1.65;;;33.60;74.30;;;;;;5032033;28;20488;-65
2022/06/11 13:30:56;;;;;;;4.95;1.40;;;32.70;74.30;;;;;;5036806;28;20527;-64